Terminal Aerodrome Forecast
Issued by NWS Brownsville, TX

Home | Current Version | Previous Version | Text Only | Print | Product List | Glossary On
Versions: 1 2 3 4 5 6 7 8 9 10 11 12 13 14 15 16
843
FTUS44 KBRO 250532
TAFMFE
TAF
KMFE 250532Z 2506/2606 15008KT P6SM SCT025 SCT250
     FM251400 15010G16KT P6SM FEW040 SCT250
     FM251800 13019G23KT P6SM SCT040 BKN250
     FM260300 14013KT P6SM SCT030 BKN250=

USA.gov is the U.S. government's official web portal to all federal, state and local government web resources and services.